createdAt,value
2019-05-20T00:02:24.314Z,68.37
2019-05-20T00:04:45.128Z,67.79
2019-05-20T00:07:13.751Z,68.58
2019-05-20T00:09:42.300Z,69.38
2019-05-20T00:12:10.946Z,70.14
2019-05-20T00:14:39.514Z,70.40
2019-05-20T00:17:08.125Z,70.87
2019-05-20T00:19:36.608Z,71.64
2019-05-20T00:22:05.296Z,71.51
2019-05-20T00:24:33.865Z,69.49
2019-05-20T00:27:02.450Z,70.46
2019-05-20T00:29:31.023Z,70.86
2019-05-20T00:31:59.592Z,69.72
2019-05-20T00:34:35.364Z,70.14
2019-05-20T00:36:58.461Z,70.68
2019-05-20T00:39:27.014Z,70.81
2019-05-20T00:41:55.560Z,71.95
2019-05-20T00:44:24.180Z,71.29
2019-05-20T00:46:52.814Z,70.89
2019-05-20T00:49:21.431Z,70.41
2019-05-20T00:51:50.047Z,70.34
2019-05-20T00:54:18.738Z,72.15
2019-05-20T00:56:49.309Z,73.22
2019-05-20T00:59:17.849Z,72.97
2019-05-20T01:01:46.471Z,71.86
2019-05-20T01:04:15.108Z,72.30
2019-05-20T01:06:43.665Z,72.22
2019-05-20T01:09:12.298Z,71.71
2019-05-20T01:11:40.905Z,71.38
2019-05-20T01:14:09.549Z,71.24
2019-05-20T01:16:38.151Z,71.50
2019-05-20T01:19:06.779Z,71.56
2019-05-20T01:21:35.273Z,72.84
2019-05-20T01:24:03.869Z,72.84
2019-05-20T01:26:32.458Z,73.64
2019-05-20T01:29:01.030Z,73.27
2019-05-20T01:31:29.623Z,73.00
2019-05-20T01:33:58.229Z,73.84
2019-05-20T01:36:26.851Z,74.20
2019-05-20T01:38:55.379Z,73.04
2019-05-20T01:41:24.975Z,73.14
2019-05-20T01:43:53.577Z,73.14
2019-05-20T01:46:22.185Z,72.12
2019-05-20T01:48:50.783Z,73.27
2019-05-20T01:51:19.417Z,73.12
2019-05-20T01:53:47.938Z,71.70
2019-05-20T01:56:16.390Z,72.74
2019-05-20T01:58:45.027Z,74.09
2019-05-20T02:01:13.665Z,73.53
2019-05-20T02:03:42.191Z,73.05
2019-05-20T02:06:10.696Z,75.67
2019-05-20T02:08:39.284Z,75.48
2019-05-20T02:11:07.899Z,74.96
2019-05-20T02:13:52.970Z,74.90
2019-05-20T02:16:23.427Z,74.94
2019-05-20T02:18:52.065Z,74.08
2019-05-20T02:21:20.802Z,73.89
2019-05-20T02:23:49.323Z,74.09
2019-05-20T02:26:17.959Z,74.22
2019-05-20T02:28:46.555Z,76.05
2019-05-20T02:31:15.159Z,74.64
2019-05-20T02:33:51.808Z,73.87
2019-05-20T02:36:14.078Z,73.97
2019-05-20T02:38:42.720Z,74.61
2019-05-20T02:41:11.330Z,73.20
2019-05-20T02:43:39.985Z,74.65
2019-05-20T02:46:08.634Z,75.08
2019-05-20T02:48:37.112Z,75.17
2019-05-20T02:51:05.757Z,75.35
2019-05-20T02:53:34.424Z,75.37
2019-05-20T02:56:02.928Z,74.92
2019-05-20T02:58:31.599Z,75.60
2019-05-20T03:01:00.217Z,75.66
2019-05-20T03:03:28.840Z,74.68
2019-05-20T03:05:57.459Z,75.03
2019-05-20T03:08:26.054Z,76.02
2019-05-20T03:10:54.618Z,76.13
2019-05-20T03:13:23.241Z,76.10
2019-05-20T03:15:51.759Z,75.53
2019-05-20T03:18:20.442Z,75.27
2019-05-20T03:20:48.969Z,75.14
2019-05-20T03:23:17.619Z,75.83
2019-05-20T03:25:46.400Z,75.36
2019-05-20T03:28:15.199Z,74.18
2019-05-20T03:30:44.308Z,74.12
2019-05-20T03:33:12.808Z,73.94
2019-05-20T03:35:41.400Z,73.86
2019-05-20T03:38:09.973Z,74.25
2019-05-20T03:40:38.507Z,74.95
2019-05-20T03:43:07.100Z,75.12
2019-05-20T03:45:35.756Z,75.51
2019-05-20T03:48:04.356Z,75.66
2019-05-20T03:50:33.110Z,75.77
2019-05-20T03:53:01.771Z,74.99
2019-05-20T03:55:30.375Z,74.71
2019-05-20T03:57:59.028Z,73.89
2019-05-20T04:00:42.182Z,73.89
2019-05-20T04:03:10.768Z,74.48
2019-05-20T04:05:40.152Z,73.47
2019-05-20T04:08:08.932Z,73.59
2019-05-20T04:10:37.527Z,74.55
2019-05-20T04:13:06.112Z,75.12
2019-05-20T04:15:34.772Z,75.58
2019-05-20T04:18:03.394Z,74.73
2019-05-20T04:20:32.005Z,74.59
2019-05-20T04:23:00.570Z,75.62
2019-05-20T04:25:29.152Z,75.40
2019-05-20T04:27:57.853Z,74.28
2019-05-20T04:30:26.785Z,73.84
2019-05-20T04:32:55.439Z,74.27
2019-05-20T04:35:23.998Z,74.81
2019-05-20T04:37:52.571Z,74.70
2019-05-20T04:40:21.196Z,74.38
2019-05-20T04:42:49.806Z,75.60
2019-05-20T04:45:18.424Z,75.35
2019-05-20T04:47:46.946Z,74.73
2019-05-20T04:50:15.686Z,75.28
2019-05-20T04:52:44.218Z,74.49
2019-05-20T04:55:12.802Z,74.02
2019-05-20T04:57:41.363Z,73.14
2019-05-20T05:00:10.857Z,73.72
2019-05-20T05:02:43.183Z,73.07
2019-05-20T05:05:10.089Z,73.60
2019-05-20T05:07:38.706Z,73.27
2019-05-20T05:10:10.674Z,73.58
2019-05-20T05:12:39.244Z,73.30
2019-05-20T05:15:09.183Z,73.03
2019-05-20T05:17:37.888Z,73.25
2019-05-20T05:20:07.885Z,73.30
2019-05-20T05:22:36.473Z,73.65
2019-05-20T05:25:07.933Z,73.89
2019-05-20T05:27:36.545Z,73.42
2019-05-20T05:30:07.724Z,73.01
2019-05-20T05:32:42.751Z,73.32
2019-05-20T05:35:14.319Z,73.19
2019-05-20T05:37:43.069Z,73.06
2019-05-20T05:40:12.382Z,73.17
2019-05-20T05:42:41.017Z,73.16
2019-05-20T05:45:10.469Z,72.86
2019-05-20T05:47:39.053Z,73.41
2019-05-20T05:50:08.092Z,72.17
2019-05-20T05:52:36.720Z,72.17
2019-05-20T05:55:06.696Z,72.04
2019-05-20T05:57:35.295Z,71.99
2019-05-20T06:00:06.413Z,72.64
2019-05-20T06:02:34.936Z,71.14
2019-05-20T06:05:03.858Z,72.73
2019-05-20T06:07:32.441Z,71.72
2019-05-20T06:10:01.028Z,73.14
2019-05-20T06:12:29.585Z,73.76
2019-05-20T06:14:58.025Z,73.42
2019-05-20T06:17:26.645Z,73.15
2019-05-20T06:19:55.288Z,72.47
2019-05-20T06:22:23.778Z,73.82
2019-05-20T06:24:52.431Z,74.48
2019-05-20T06:27:20.928Z,74.82
2019-05-20T06:29:49.580Z,75.43
2019-05-20T06:32:18.089Z,74.80
2019-05-20T06:34:46.693Z,74.61
2019-05-20T06:37:19.866Z,74.23
2019-05-20T06:39:51.196Z,73.26
2019-05-20T06:42:18.859Z,73.44
2019-05-20T06:44:53.032Z,74.10
2019-05-20T06:47:17.858Z,74.68
2019-05-20T06:49:46.398Z,73.73
2019-05-20T06:52:15.043Z,74.49
2019-05-20T06:54:43.526Z,74.67
2019-05-20T06:57:12.237Z,74.09
2019-05-20T06:59:41.488Z,74.16
2019-05-20T07:02:10.071Z,74.40
2019-05-20T07:04:38.622Z,73.10
2019-05-20T07:07:20.022Z,73.72
2019-05-20T07:09:37.542Z,73.14
2019-05-20T07:12:06.248Z,72.96
2019-05-20T07:14:34.831Z,71.66
2019-05-20T07:17:03.427Z,73.45
2019-05-20T07:19:32.026Z,73.07
2019-05-20T07:22:00.706Z,72.37
2019-05-20T07:24:29.286Z,72.01
2019-05-20T07:26:57.931Z,71.97
2019-05-20T07:29:26.492Z,71.39
2019-05-20T07:31:54.983Z,70.64
2019-05-20T07:34:23.426Z,72.97
2019-05-20T07:37:02.819Z,71.96
2019-05-20T07:39:22.165Z,71.81
2019-05-20T07:41:50.786Z,72.04
2019-05-20T07:44:19.365Z,72.73
2019-05-20T07:46:48.175Z,73.12
2019-05-20T07:49:16.814Z,73.64
2019-05-20T07:51:46.911Z,72.35
2019-05-20T07:54:16.008Z,71.71
2019-05-20T07:56:47.362Z,72.84
2019-05-20T07:59:17.791Z,74.23
2019-05-20T08:01:46.350Z,73.87
2019-05-20T08:04:15.195Z,73.79
2019-05-20T08:06:43.795Z,72.89
2019-05-20T08:09:12.291Z,73.20
2019-05-20T08:11:40.873Z,72.97
2019-05-20T08:14:09.502Z,72.73
2019-05-20T08:16:38.100Z,72.38
2019-05-20T08:19:06.717Z,73.00
2019-05-20T08:21:35.240Z,72.31
2019-05-20T08:24:04.015Z,72.80
2019-05-20T08:26:32.678Z,70.79
2019-05-20T08:29:01.294Z,72.52
2019-05-20T08:31:30.012Z,71.79
2019-05-20T08:33:58.650Z,71.21
2019-05-20T08:36:27.268Z,72.33
2019-05-20T08:38:55.829Z,71.90
2019-05-20T08:41:24.489Z,71.88
2019-05-20T08:43:53.106Z,71.55
2019-05-20T08:46:21.619Z,71.88
2019-05-20T08:48:50.378Z,71.07
2019-05-20T08:51:19.075Z,71.22
2019-05-20T08:53:47.815Z,71.55
2019-05-20T08:56:16.551Z,71.51
2019-05-20T08:58:45.073Z,70.79
2019-05-20T09:01:13.680Z,69.46
2019-05-20T09:03:42.305Z,69.67
2019-05-20T09:06:10.916Z,68.91
2019-05-20T09:08:39.480Z,70.63
2019-05-20T09:11:08.116Z,70.84
2019-05-20T09:13:36.707Z,70.38
2019-05-20T09:16:05.578Z,70.09
2019-05-20T09:18:34.150Z,69.50
2019-05-20T09:21:02.775Z,69.31
2019-05-20T09:23:31.365Z,68.52
2019-05-20T09:26:00.431Z,69.51
2019-05-20T09:28:29.164Z,68.43
2019-05-20T09:30:57.871Z,67.83
2019-05-20T09:33:26.488Z,68.56
2019-05-20T09:35:55.906Z,70.01
2019-05-20T09:38:24.447Z,68.33
2019-05-20T09:40:53.070Z,67.72
2019-05-20T09:43:21.610Z,69.93
2019-05-20T09:46:05.590Z,68.01
2019-05-20T09:48:24.686Z,70.32
2019-05-20T09:50:51.033Z,69.34
2019-05-20T09:53:19.495Z,69.42
2019-05-20T09:55:48.134Z,69.48
2019-05-20T09:58:16.784Z,68.55
2019-05-20T10:00:46.469Z,69.11
2019-05-20T10:03:15.060Z,66.95
2019-05-20T10:05:43.663Z,68.87
2019-05-20T10:08:12.371Z,67.24
2019-05-20T10:10:40.977Z,68.75
2019-05-20T10:13:09.719Z,66.68
2019-05-20T10:15:38.412Z,69.32
2019-05-20T10:18:07.293Z,68.40
2019-05-20T10:20:35.893Z,67.70
2019-05-20T10:23:04.447Z,68.50
2019-05-20T10:25:33.153Z,66.39
2019-05-20T10:28:01.761Z,67.20
2019-05-20T10:30:31.222Z,67.73
2019-05-20T10:32:59.806Z,66.81
2019-05-20T10:35:28.477Z,66.39
2019-05-20T10:37:57.090Z,67.42
2019-05-20T10:40:25.726Z,67.81
2019-05-20T10:42:54.357Z,67.73
2019-05-20T10:45:23.002Z,67.55
2019-05-20T10:47:51.576Z,67.09
2019-05-20T10:50:20.281Z,66.75
2019-05-20T10:52:48.817Z,67.92
2019-05-20T10:55:17.548Z,67.61
2019-05-20T10:57:46.061Z,68.80
2019-05-20T11:00:14.973Z,68.48
2019-05-20T11:02:43.526Z,68.32
2019-05-20T11:05:12.304Z,68.83
2019-05-20T11:07:40.963Z,68.44
2019-05-20T11:10:09.958Z,68.40
2019-05-20T11:12:38.496Z,68.38
2019-05-20T11:15:07.718Z,68.77
2019-05-20T11:17:36.313Z,68.61
2019-05-20T11:20:07.136Z,67.93
2019-05-20T11:22:35.761Z,68.30
2019-05-20T11:25:06.151Z,66.81
2019-05-20T11:27:34.716Z,69.05
2019-05-20T11:30:04.341Z,68.88
2019-05-20T11:32:32.959Z,68.93
2019-05-20T11:35:02.345Z,67.25
2019-05-20T11:37:32.037Z,68.68
2019-05-20T11:40:00.692Z,67.73
2019-05-20T11:42:29.319Z,67.81
2019-05-20T11:44:57.962Z,68.26
2019-05-20T11:47:26.672Z,68.61
2019-05-20T11:49:55.265Z,66.89
2019-05-20T11:52:23.892Z,67.54
2019-05-20T11:54:52.499Z,67.59
2019-05-20T11:57:20.986Z,68.83
2019-05-20T11:59:49.608Z,67.69
2019-05-20T12:02:18.179Z,68.47
2019-05-20T12:04:46.786Z,67.92
2019-05-20T12:07:15.334Z,68.54
2019-05-20T12:09:49.693Z,68.49
2019-05-20T12:12:14.142Z,67.82
2019-05-20T12:14:42.612Z,66.77
2019-05-20T12:17:11.166Z,67.19
2019-05-20T12:19:39.687Z,65.96
2019-05-20T12:22:08.319Z,66.18
2019-05-20T12:24:36.902Z,65.97
2019-05-20T12:27:05.528Z,64.85
2019-05-20T12:29:34.114Z,65.68
2019-05-20T12:32:03.658Z,66.76
2019-05-20T12:34:32.413Z,66.70
2019-05-20T12:37:00.923Z,66.22
2019-05-20T12:39:29.552Z,66.07
2019-05-20T12:41:58.146Z,65.70
2019-05-20T12:44:26.751Z,65.94
2019-05-20T12:46:55.465Z,65.14
2019-05-20T12:49:24.180Z,66.05
2019-05-20T12:51:52.977Z,66.29
2019-05-20T12:54:21.419Z,66.21
2019-05-20T12:56:49.956Z,66.47
2019-05-20T12:59:18.565Z,66.92
2019-05-20T13:01:47.124Z,66.62
2019-05-20T13:04:15.855Z,66.83
2019-05-20T13:06:44.547Z,67.30
2019-05-20T13:09:13.153Z,66.68
2019-05-20T13:11:41.716Z,66.35
2019-05-20T13:14:10.307Z,66.91
2019-05-20T13:16:38.831Z,66.53
2019-05-20T13:19:07.520Z,66.78
2019-05-20T13:21:36.125Z,67.81
2019-05-20T13:24:05.038Z,67.48
2019-05-20T13:26:33.557Z,67.01
2019-05-20T13:29:02.221Z,66.58
2019-05-20T13:31:30.814Z,66.08
2019-05-20T13:33:59.385Z,67.70
2019-05-20T13:36:27.943Z,66.37
2019-05-20T13:38:56.427Z,67.27
2019-05-20T13:41:25.057Z,66.75
2019-05-20T13:43:53.572Z,65.54
2019-05-20T13:46:22.228Z,65.20
2019-05-20T13:48:50.933Z,65.15
2019-05-20T13:51:19.588Z,64.57
2019-05-20T13:53:48.135Z,65.69
2019-05-20T13:56:16.695Z,64.33
2019-05-20T13:58:45.446Z,65.69
2019-05-20T14:01:14.116Z,66.01
2019-05-20T14:03:42.749Z,66.33
2019-05-20T14:06:11.477Z,65.71
2019-05-20T14:08:40.042Z,66.84
2019-05-20T14:11:08.561Z,66.53
2019-05-20T14:13:37.121Z,65.19
2019-05-20T14:16:05.766Z,67.27
2019-05-20T14:18:34.293Z,65.83
2019-05-20T14:21:02.926Z,65.73
2019-05-20T14:23:31.507Z,65.54
2019-05-20T14:25:59.988Z,66.56
2019-05-20T14:28:28.652Z,64.86
2019-05-20T14:30:57.589Z,65.46
2019-05-20T14:33:26.056Z,66.42
2019-05-20T14:35:54.535Z,67.05
2019-05-20T14:38:23.162Z,66.65
2019-05-20T14:40:51.835Z,65.99
2019-05-20T14:43:20.401Z,65.39
2019-05-20T14:45:49.094Z,66.26
2019-05-20T14:48:17.643Z,66.80
2019-05-20T14:50:46.251Z,66.36
2019-05-20T14:53:14.738Z,65.99
2019-05-20T14:55:43.349Z,64.72
2019-05-20T14:58:12.049Z,65.53
2019-05-20T15:00:40.680Z,66.07
2019-05-20T15:03:09.273Z,65.92
2019-05-20T15:05:37.942Z,66.28
2019-05-20T15:08:06.620Z,67.14
2019-05-20T15:10:35.176Z,67.14
2019-05-20T15:13:04.523Z,68.12
2019-05-20T15:15:33.348Z,66.97
2019-05-20T15:18:02.020Z,67.49
2019-05-20T15:20:30.669Z,67.95
2019-05-20T15:22:59.239Z,67.19
2019-05-20T15:25:27.787Z,67.38
2019-05-20T15:27:56.401Z,68.30
2019-05-20T15:30:25.016Z,67.13
2019-05-20T15:32:54.960Z,67.15
2019-05-20T15:35:23.657Z,67.17
2019-05-20T15:37:52.231Z,65.74
2019-05-20T15:40:24.119Z,65.44
2019-05-20T15:42:51.250Z,65.44
2019-05-20T15:45:20.009Z,64.96
2019-05-20T15:47:48.604Z,65.67
2019-05-20T15:50:17.524Z,65.46
2019-05-20T15:52:46.117Z,65.85
2019-05-20T15:55:14.738Z,66.40
2019-05-20T15:57:43.372Z,65.38
2019-05-20T16:00:12.259Z,66.05
2019-05-20T16:02:40.930Z,65.06
2019-05-20T16:05:09.780Z,66.36
2019-05-20T16:07:38.264Z,66.10
2019-05-20T16:10:07.147Z,64.87
2019-05-20T16:12:35.834Z,65.82
2019-05-20T16:15:07.049Z,65.40
2019-05-20T16:17:35.684Z,65.31
2019-05-20T16:20:07.197Z,66.85
2019-05-20T16:22:36.076Z,68.01
2019-05-20T16:25:07.224Z,66.83
2019-05-20T16:27:35.794Z,67.70
2019-05-20T16:30:07.693Z,67.13
2019-05-20T16:32:36.417Z,67.70
2019-05-20T16:35:07.111Z,68.25
2019-05-20T16:37:35.645Z,67.88
2019-05-20T16:40:09.211Z,67.75
2019-05-20T16:42:37.899Z,68.39
2019-05-20T16:45:11.581Z,68.21
2019-05-20T16:47:38.900Z,68.85
2019-05-20T16:50:09.095Z,67.99
2019-05-20T16:52:38.365Z,67.30
2019-05-20T16:55:07.896Z,67.91
2019-05-20T16:57:36.490Z,68.63
2019-05-20T17:00:16.134Z,68.44
2019-05-20T17:02:37.349Z,68.32
2019-05-20T17:05:06.120Z,67.47
2019-05-20T17:07:34.693Z,69.16
2019-05-20T17:10:04.445Z,69.73
2019-05-20T17:12:33.028Z,68.55
2019-05-20T17:15:01.659Z,68.97
2019-05-20T17:17:30.184Z,69.07
2019-05-20T17:19:58.763Z,69.00
2019-05-20T17:22:27.312Z,68.19
2019-05-20T17:24:55.934Z,68.62
2019-05-20T17:27:24.566Z,67.97
2019-05-20T17:29:53.287Z,68.65
2019-05-20T17:32:21.805Z,67.72
2019-05-20T17:34:50.470Z,67.35
2019-05-20T17:37:19.095Z,67.64
2019-05-20T17:39:47.704Z,69.63
2019-05-20T17:42:16.353Z,68.91
2019-05-20T17:44:44.936Z,69.63
2019-05-20T17:47:13.554Z,69.38
2019-05-20T17:49:42.159Z,69.89
2019-05-20T17:52:10.770Z,69.69
2019-05-20T17:54:39.479Z,70.05
2019-05-20T17:57:08.094Z,68.71
2019-05-20T17:59:36.727Z,69.72
2019-05-20T18:02:06.964Z,68.04
2019-05-20T18:04:36.711Z,69.54
2019-05-20T18:07:05.350Z,69.66
2019-05-20T18:09:35.632Z,69.19
2019-05-20T18:12:04.208Z,68.66
2019-05-20T18:14:32.767Z,69.57
2019-05-20T18:17:01.482Z,69.73
2019-05-20T18:19:29.995Z,68.38
2019-05-20T18:21:58.638Z,68.52
2019-05-20T18:24:27.263Z,69.81
2019-05-20T18:26:55.960Z,68.19
2019-05-20T18:29:24.665Z,68.93
2019-05-20T18:31:53.325Z,68.06
2019-05-20T18:34:21.971Z,69.10
2019-05-20T18:36:50.569Z,69.60
2019-05-20T18:39:19.194Z,69.35
2019-05-20T18:41:47.801Z,69.21
2019-05-20T18:44:16.316Z,70.16
2019-05-20T18:46:44.889Z,70.37
2019-05-20T18:49:13.379Z,69.62
2019-05-20T18:51:42.085Z,69.25
2019-05-20T18:54:11.276Z,69.35
2019-05-20T18:56:39.882Z,68.24
2019-05-20T18:59:08.383Z,68.18
2019-05-20T19:01:47.546Z,69.82
2019-05-20T19:04:07.661Z,69.33
2019-05-20T19:06:36.222Z,68.24
2019-05-20T19:09:06.998Z,68.14
2019-05-20T19:11:35.598Z,68.39
2019-05-20T19:14:08.151Z,68.39
2019-05-20T19:16:34.590Z,69.28
2019-05-20T19:19:03.218Z,68.21
2019-05-20T19:21:31.835Z,66.92
2019-05-20T19:24:00.391Z,67.42
2019-05-20T19:26:29.021Z,67.97
2019-05-20T19:28:57.639Z,69.06
2019-05-20T19:31:26.236Z,70.59
2019-05-20T19:33:54.868Z,69.99
2019-05-20T19:36:23.432Z,69.95
2019-05-20T19:38:52.100Z,71.02
2019-05-20T19:41:20.717Z,70.65
2019-05-20T19:43:49.275Z,72.23
2019-05-20T19:46:17.842Z,71.37
2019-05-20T19:48:46.491Z,70.95
2019-05-20T19:51:14.971Z,70.06
2019-05-20T19:53:43.594Z,70.04
2019-05-20T19:56:12.194Z,70.42
2019-05-20T19:58:40.822Z,72.29
2019-05-20T20:01:09.379Z,72.29
2019-05-20T20:03:38.053Z,72.41
2019-05-20T20:06:06.644Z,71.54
2019-05-20T20:08:35.149Z,71.96
2019-05-20T20:11:03.743Z,72.26
2019-05-20T20:13:34.528Z,71.96
2019-05-20T20:16:02.809Z,71.62
2019-05-20T20:18:31.364Z,71.40
2019-05-20T20:20:59.926Z,72.41
2019-05-20T20:23:28.491Z,72.84
2019-05-20T20:25:57.329Z,73.71
2019-05-20T20:28:25.919Z,72.41
2019-05-20T20:30:54.553Z,72.29
2019-05-20T20:33:23.147Z,71.92
2019-05-20T20:35:51.769Z,71.43
2019-05-20T20:38:20.308Z,71.95
2019-05-20T20:40:48.875Z,72.61
2019-05-20T20:43:17.412Z,72.95
2019-05-20T20:45:46.023Z,72.48
2019-05-20T20:48:14.541Z,72.33
2019-05-20T20:50:43.373Z,72.16
2019-05-20T20:53:11.838Z,71.81
2019-05-20T20:55:40.403Z,71.89
2019-05-20T20:58:09.034Z,72.35
2019-05-20T21:00:38.625Z,71.74
2019-05-20T21:03:07.237Z,71.74
2019-05-20T21:05:36.030Z,73.01
2019-05-20T21:08:04.660Z,72.65
2019-05-20T21:10:33.257Z,72.78
2019-05-20T21:13:01.824Z,73.21
2019-05-20T21:15:30.448Z,72.47
2019-05-20T21:17:59.049Z,72.45
2019-05-20T21:20:27.639Z,72.94
2019-05-20T21:22:56.257Z,71.30
2019-05-20T21:25:24.755Z,72.24
2019-05-20T21:27:53.325Z,73.28
2019-05-20T21:30:21.983Z,73.23
2019-05-20T21:32:50.588Z,73.66
2019-05-20T21:35:19.227Z,74.12
2019-05-20T21:37:47.843Z,74.25
2019-05-20T21:40:16.428Z,73.24
2019-05-20T21:42:44.983Z,72.72
2019-05-20T21:45:13.555Z,73.29
2019-05-20T21:47:44.722Z,72.99
2019-05-20T21:50:13.085Z,72.27
2019-05-20T21:52:41.558Z,71.68
2019-05-20T21:55:10.586Z,73.29
2019-05-20T21:57:39.490Z,73.32
2019-05-20T22:00:11.113Z,72.60
2019-05-20T22:02:39.757Z,72.67
2019-05-20T22:05:08.580Z,73.66
2019-05-20T22:07:37.229Z,73.08
2019-05-20T22:10:06.934Z,73.98
2019-05-20T22:12:36.424Z,73.86
2019-05-20T22:15:06.547Z,73.34
2019-05-20T22:17:35.036Z,74.01
2019-05-20T22:20:04.782Z,73.83
2019-05-20T22:22:47.249Z,74.35
2019-05-20T22:25:15.857Z,74.13
2019-05-20T22:27:44.313Z,73.44
2019-05-20T22:30:13.314Z,74.84
2019-05-20T22:32:41.898Z,73.91
2019-05-20T22:35:10.510Z,73.83
2019-05-20T22:37:39.837Z,74.20
2019-05-20T22:40:08.486Z,74.09
2019-05-20T22:42:37.158Z,74.12
2019-05-20T22:45:06.239Z,74.24
2019-05-20T22:47:34.878Z,74.93
2019-05-20T22:50:03.992Z,74.92
2019-05-20T22:52:32.538Z,74.89
2019-05-20T22:55:01.115Z,74.71
2019-05-20T22:57:30.223Z,74.63
2019-05-20T22:59:58.758Z,74.79
2019-05-20T23:02:27.352Z,75.23
2019-05-20T23:04:55.967Z,75.52
2019-05-20T23:07:24.597Z,75.19
2019-05-20T23:09:53.186Z,74.77
2019-05-20T23:12:21.802Z,74.71
2019-05-20T23:14:50.413Z,75.11
2019-05-20T23:17:28.365Z,76.90
2019-05-20T23:19:56.920Z,77.07
2019-05-20T23:22:25.476Z,76.95
2019-05-20T23:24:53.979Z,77.25
2019-05-20T23:27:22.508Z,76.97
2019-05-20T23:29:51.644Z,77.76
2019-05-20T23:32:20.243Z,78.31
2019-05-20T23:34:48.733Z,77.95
2019-05-20T23:37:17.419Z,78.07
2019-05-20T23:39:45.983Z,78.48
2019-05-20T23:42:14.673Z,80.06
2019-05-20T23:44:43.235Z,79.69
2019-05-20T23:47:11.749Z,78.60
2019-05-20T23:49:40.988Z,78.58
2019-05-20T23:52:09.599Z,78.22
2019-05-20T23:54:38.136Z,78.76
2019-05-20T23:57:06.753Z,78.39
2019-05-20T23:59:35.409Z,77.80
